Time;durP1;ratioP1;P1;durP2;ratioP2;P2;SDS_P1;SDS_P2;PMS_P1;PMS_P2;Temp;Humidity;BMP_temperature;BMP_pressure;BME280_temperature;BME280_humidity;BME280_pressure;Samples;Min_cycle;Max_cycle;Signal;HPM_P1;HPM_P2
2023/12/09 00:01:44;;;;;;;17.20;10.00;;;;;;;-0.01;87.04;95887.88;106460;1277;22753;-79
2023/12/09 00:04:12;;;;;;;17.50;10.50;;;;;;;0.11;87.36;95887.67;106553;1277;23029;-79
2023/12/09 00:06:50;;;;;;;17.00;10.30;;;;;;;0.23;86.75;95891.27;106439;1277;25399;-79
2023/12/09 00:09:19;;;;;;;16.80;10.20;;;;;;;0.23;85.77;95892.83;106587;1277;22803;-79
2023/12/09 00:11:47;;;;;;;18.10;11.20;;;;;;;0.19;85.10;95891.19;106650;1277;22537;-79
2023/12/09 00:14:15;;;;;;;17.40;9.80;;;;;;;0.21;85.52;95889.33;106770;1277;24257;-79
2023/12/09 00:16:43;;;;;;;21.50;12.00;;;;;;;0.24;85.40;95888.01;106528;1277;22545;-79
2023/12/09 00:19:13;;;;;;;23.10;12.00;;;;;;;0.22;85.09;95889.53;106529;1277;24057;-79
2023/12/09 00:21:41;;;;;;;23.60;12.70;;;;;;;0.19;85.04;95892.05;106597;1277;22696;-79
2023/12/09 00:24:09;;;;;;;18.10;11.10;;;;;;;0.20;85.45;95890.69;106519;1277;23928;-79
2023/12/09 00:26:38;;;;;;;19.90;11.20;;;;;;;0.24;85.41;95892.17;106490;1277;22539;-79
2023/12/09 00:29:06;;;;;;;17.10;10.80;;;;;;;0.22;85.22;95897.64;106520;1277;25383;-79
2023/12/09 00:31:34;;;;;;;18.80;10.80;;;;;;;0.25;85.72;95894.62;106503;1270;22648;-79
2023/12/09 00:34:02;;;;;;;17.40;10.20;;;;;;;0.27;85.38;95891.71;106527;1277;22578;-79
2023/12/09 00:36:31;;;;;;;17.60;10.40;;;;;;;0.22;85.11;95897.31;106422;1277;22610;-79
2023/12/09 00:38:59;;;;;;;17.40;10.50;;;;;;;0.19;84.95;95893.77;106506;1277;22591;-78
2023/12/09 00:41:27;;;;;;;19.40;10.90;;;;;;;0.13;85.10;95892.75;106763;1277;22531;-79
2023/12/09 00:43:55;;;;;;;19.90;10.80;;;;;;;0.11;85.34;95892.86;106487;1277;22800;-79
2023/12/09 00:46:24;;;;;;;17.70;10.50;;;;;;;0.09;85.35;95893.51;106745;1277;22542;-79
2023/12/09 00:48:52;;;;;;;18.10;10.30;;;;;;;0.05;85.37;95892.54;106531;1277;22548;-79
2023/12/09 00:51:20;;;;;;;16.80;10.70;;;;;;;-0.04;85.21;95900.42;106518;1277;22534;-79
2023/12/09 00:53:48;;;;;;;17.70;10.60;;;;;;;-0.09;85.56;95898.90;106743;1267;22657;-79
2023/12/09 00:56:16;;;;;;;16.90;10.20;;;;;;;-0.15;85.80;95895.45;106775;1277;22652;-79
2023/12/09 00:59:02;;;;;;;17.40;9.90;;;;;;;-0.21;85.77;95899.09;106667;1277;22862;-79
2023/12/09 01:01:33;;;;;;;15.30;9.00;;;;;;;-0.27;85.72;95895.31;106487;1277;24291;-79
2023/12/09 01:04:03;;;;;;;18.80;10.60;;;;;;;-0.31;85.78;95892.77;106599;1277;25661;-78
2023/12/09 01:06:32;;;;;;;15.30;9.40;;;;;;;-0.31;86.01;95892.75;106785;1277;23154;-79
2023/12/09 01:09:01;;;;;;;14.90;9.30;;;;;;;-0.34;85.96;95893.39;106648;1277;22620;-79
2023/12/09 01:11:29;;;;;;;15.00;8.10;;;;;;;-0.40;85.88;95891.65;106645;1277;22659;-79
2023/12/09 01:13:57;;;;;;;17.90;9.30;;;;;;;-0.44;86.02;95891.39;106471;1253;22641;-79
2023/12/09 01:16:25;;;;;;;17.20;9.20;;;;;;;-0.46;86.11;95890.61;106517;1277;22538;-79
2023/12/09 01:18:54;;;;;;;15.80;9.80;;;;;;;-0.48;86.03;95887.98;106416;1277;24208;-79
2023/12/09 01:21:22;;;;;;;14.10;8.30;;;;;;;-0.48;86.07;95890.23;106506;1277;22507;-79
2023/12/09 01:23:50;;;;;;;15.60;8.40;;;;;;;-0.51;86.09;95888.59;106525;1277;25271;-79
2023/12/09 01:26:18;;;;;;;14.20;8.80;;;;;;;-0.54;86.19;95885.55;106580;1277;22651;-78
2023/12/09 01:28:47;;;;;;;13.00;8.60;;;;;;;-0.57;86.13;95881.83;106473;1277;25422;-79
2023/12/09 01:31:15;;;;;;;15.40;8.80;;;;;;;-0.60;86.27;95882.79;106453;1277;25428;-79
2023/12/09 01:33:43;;;;;;;16.10;9.20;;;;;;;-0.64;86.41;95886.64;106493;1277;24409;-79
2023/12/09 01:36:12;;;;;;;14.00;8.50;;;;;;;-0.68;86.35;95884.98;106474;1277;22552;-79
2023/12/09 01:38:40;;;;;;;14.60;8.20;;;;;;;-0.71;86.33;95884.20;106746;1277;22529;-79
2023/12/09 01:41:09;;;;;;;18.30;11.00;;;;;;;-0.75;86.54;95885.27;106593;1277;25355;-79
2023/12/09 01:43:37;;;;;;;18.30;10.30;;;;;;;-0.75;86.52;95883.39;106515;1277;22623;-79
2023/12/09 01:46:09;;;;;;;16.60;9.90;;;;;;;-0.74;86.69;95882.89;106544;1277;22523;-79
2023/12/09 01:48:38;;;;;;;16.80;9.80;;;;;;;-0.73;86.71;95877.74;106472;1277;25669;-79
2023/12/09 01:51:07;;;;;;;17.40;10.10;;;;;;;-0.71;86.74;95876.42;106579;1254;25727;-78
2023/12/09 01:53:37;;;;;;;17.30;9.20;;;;;;;-0.67;86.98;95869.65;106422;1277;25321;-79
2023/12/09 01:56:09;;;;;;;17.20;8.50;;;;;;;-0.57;87.26;95865.77;106545;1277;24288;-79
2023/12/09 01:58:38;;;;;;;15.20;9.30;;;;;;;-0.53;86.56;95862.95;106499;1277;23940;-78
2023/12/09 02:01:06;;;;;;;15.00;8.80;;;;;;;-0.50;86.70;95856.64;106695;1277;24233;-79
2023/12/09 02:03:35;;;;;;;17.20;8.80;;;;;;;-0.45;86.73;95850.55;106601;1271;24290;-78
2023/12/09 02:06:04;;;;;;;16.30;8.50;;;;;;;-0.40;86.58;95851.89;106506;1277;22530;-78
2023/12/09 02:08:32;;;;;;;15.80;8.70;;;;;;;-0.45;85.22;95851.75;106580;1277;24978;-78
2023/12/09 02:11:01;;;;;;;14.90;8.60;;;;;;;-0.55;84.99;95854.94;106491;1277;24225;-78
2023/12/09 02:13:44;;;;;;;16.60;9.00;;;;;;;-0.55;85.59;95852.70;106543;1277;24417;-78
2023/12/09 02:16:27;;;;;;;16.10;8.90;;;;;;;-0.56;85.54;95848.88;106453;1277;22541;-78
2023/12/09 02:18:57;;;;;;;14.80;9.30;;;;;;;-0.55;85.65;95849.05;106609;1276;22686;-78
2023/12/09 02:21:26;;;;;;;14.40;8.30;;;;;;;-0.49;85.99;95851.13;106739;1277;25420;-78
2023/12/09 02:23:54;;;;;;;17.60;9.00;;;;;;;-0.42;86.00;95848.74;106723;1273;22802;-78
2023/12/09 02:26:28;;;;;;;13.30;8.00;;;;;;;-0.38;85.64;95853.67;106554;1277;22536;-78
2023/12/09 02:29:00;;;;;;;;;;;;;;;-0.32;85.68;95852.13;106634;1277;25416;-78
2023/12/09 02:31:34;;;;;;;14.10;7.90;;;;;;;-0.34;85.02;95852.58;106492;1277;25508;-78
2023/12/09 02:34:05;;;;;;;15.60;8.60;;;;;;;-0.38;85.13;95849.01;106690;1277;25521;-78
2023/12/09 02:36:35;;;;;;;15.60;8.90;;;;;;;-0.41;85.14;95848.08;106523;1277;22643;-78
2023/12/09 02:39:07;;;;;;;14.60;8.20;;;;;;;-0.42;85.04;95847.52;106489;1266;23012;-78
2023/12/09 02:41:36;;;;;;;15.00;9.30;;;;;;;-0.46;84.86;95846.02;106572;1277;24265;-78
2023/12/09 02:44:05;;;;;;;14.20;8.40;;;;;;;-0.52;84.78;95841.21;106521;1277;24253;-78
2023/12/09 02:46:33;;;;;;;13.70;8.00;;;;;;;-0.53;84.89;95849.11;106506;1277;22565;-78
2023/12/09 02:49:01;;;;;;;15.60;8.30;;;;;;;-0.58;84.69;95851.04;106430;1277;22537;-78
2023/12/09 02:51:29;;;;;;;14.00;8.50;;;;;;;-0.62;84.74;95848.69;106559;1261;22524;-78
2023/12/09 02:53:58;;;;;;;15.00;8.30;;;;;;;-0.71;84.63;95846.02;106488;1277;22642;-78
2023/12/09 02:56:26;;;;;;;19.10;8.70;;;;;;;-0.77;84.98;95848.27;106546;1277;24455;-78
2023/12/09 02:58:54;;;;;;;12.80;7.70;;;;;;;-0.81;85.15;95849.70;106481;1277;22656;-78
2023/12/09 03:01:22;;;;;;;15.10;7.80;;;;;;;-0.85;85.20;95850.27;106707;1277;26644;-79
2023/12/09 03:03:50;;;;;;;15.20;8.50;;;;;;;-0.92;85.23;95849.21;106586;1277;24206;-79
2023/12/09 03:06:19;;;;;;;19.10;8.80;;;;;;;-1.01;85.55;95853.61;106615;1277;24515;-79
2023/12/09 03:08:47;;;;;;;17.50;9.50;;;;;;;-1.09;85.81;95852.83;106511;1271;24460;-78
2023/12/09 03:11:15;;;;;;;17.00;8.70;;;;;;;-1.16;86.10;95853.17;106681;1276;22534;-79
2023/12/09 03:13:44;;;;;;;15.60;8.70;;;;;;;-1.21;86.30;95852.51;106630;1277;22533;-79
2023/12/09 03:16:12;;;;;;;13.80;7.50;;;;;;;-1.25;86.65;95852.17;106641;1277;22570;-79
2023/12/09 03:18:40;;;;;;;17.90;9.40;;;;;;;-1.31;87.15;95857.35;106503;1268;22784;-79
2023/12/09 03:21:14;;;;;;;23.60;10.50;;;;;;;-1.31;87.12;95857.36;106546;1277;23881;-78
2023/12/09 03:23:43;;;;;;;17.80;9.60;;;;;;;-1.26;87.16;95855.95;106544;1277;25645;-79
2023/12/09 03:26:16;;;;;;;32.20;15.00;;;;;;;-1.22;87.24;95854.89;106655;1277;22526;-79
2023/12/09 03:28:45;;;;;;;18.00;9.80;;;;;;;-1.18;87.05;95856.02;106509;1277;22722;-79
2023/12/09 03:31:15;;;;;;;17.20;9.40;;;;;;;-1.14;87.15;95859.95;106681;1277;23663;-79
2023/12/09 03:33:43;;;;;;;12.20;7.20;;;;;;;-1.07;87.31;95862.40;106780;1277;24271;-79
2023/12/09 03:36:15;;;;;;;14.20;6.60;;;;;;;-0.98;87.22;95863.70;106723;1277;22642;-80
2023/12/09 03:38:43;;;;;;;12.00;6.20;;;;;;;-0.92;87.17;95860.80;106498;1277;25314;-79
2023/12/09 03:41:11;;;;;;;10.10;6.10;;;;;;;-0.83;86.91;95865.69;106505;1277;25377;-80
2023/12/09 03:43:39;;;;;;;10.10;5.40;;;;;;;-0.83;86.00;95865.85;106561;1267;22654;-79
2023/12/09 03:46:08;;;;;;;9.70;5.90;;;;;;;-0.85;86.04;95869.27;106476;1277;25248;-80
2023/12/09 03:48:36;;;;;;;9.70;5.60;;;;;;;-0.83;85.71;95868.11;106440;1277;22649;-79
2023/12/09 03:51:05;;;;;;;10.80;5.50;;;;;;;-0.84;85.66;95870.17;106538;1277;22619;-80
2023/12/09 03:53:33;;;;;;;10.90;5.90;;;;;;;-0.82;85.86;95871.95;106756;1277;22550;-79
2023/12/09 03:56:01;;;;;;;10.10;5.80;;;;;;;-0.81;85.41;95869.56;106688;1277;23229;-80
2023/12/09 03:58:29;;;;;;;13.50;6.80;;;;;;;-0.79;85.46;95872.39;106603;1277;22660;-79
2023/12/09 04:00:57;;;;;;;10.00;5.70;;;;;;;-0.77;85.49;95869.14;106480;1277;23920;-79
2023/12/09 04:03:27;;;;;;;8.00;5.50;;;;;;;-0.78;85.02;95869.46;106435;1274;25291;-80
2023/12/09 04:05:56;;;;;;;9.70;5.60;;;;;;;-0.79;85.12;95870.48;106487;1256;24227;-79
2023/12/09 04:08:24;;;;;;;10.60;5.50;;;;;;;-0.77;85.43;95868.30;106491;1277;22723;-79
2023/12/09 04:10:52;;;;;;;8.60;5.20;;;;;;;-0.73;85.42;95873.08;106701;1277;24340;-79
2023/12/09 04:13:21;;;;;;;9.00;5.40;;;;;;;-0.78;84.66;95869.64;106486;1277;24296;-79
2023/12/09 04:15:49;;;;;;;10.90;5.30;;;;;;;-0.83;84.84;95868.64;106453;1277;24225;-79
2023/12/09 04:18:17;;;;;;;9.80;5.80;;;;;;;-0.83;84.93;95871.73;106433;1277;22987;-79
2023/12/09 04:20:46;;;;;;;10.80;6.10;;;;;;;-0.90;84.62;95873.45;106510;1263;22707;-79
2023/12/09 04:23:15;;;;;;;9.90;5.90;;;;;;;-0.97;84.92;95880.14;106583;1277;22577;-79
2023/12/09 04:25:43;;;;;;;8.20;5.30;;;;;;;-1.04;84.65;95878.38;106504;1277;22551;-79
2023/12/09 04:28:11;;;;;;;9.40;5.60;;;;;;;-1.10;84.84;95881.64;106541;1276;22650;-80
2023/12/09 04:30:40;;;;;;;10.80;6.20;;;;;;;-1.14;84.97;95887.58;106385;1277;22532;-79
2023/12/09 04:33:08;;;;;;;9.60;4.80;;;;;;;-1.21;84.85;95890.81;106469;1277;24235;-79
2023/12/09 04:35:36;;;;;;;10.30;5.50;;;;;;;-1.28;84.95;95895.57;106446;1277;22769;-80
2023/12/09 04:38:04;;;;;;;9.00;4.90;;;;;;;-1.36;85.20;95896.40;106498;1277;22608;-79
2023/12/09 04:40:33;;;;;;;14.30;7.90;;;;;;;-1.40;85.14;95899.70;106537;1277;23016;-79
2023/12/09 04:43:01;;;;;;;12.00;7.10;;;;;;;-1.43;85.07;95899.76;106497;1277;215740;-80
2023/12/09 04:45:29;;;;;;;16.60;12.50;;;;;;;-1.42;85.26;95902.90;106743;1277;25377;-79
2023/12/09 04:47:57;;;;;;;12.70;7.80;;;;;;;-1.42;85.43;95900.48;106475;1277;22533;-79
2023/12/09 04:50:26;;;;;;;10.10;6.80;;;;;;;-1.38;85.73;95899.42;106577;1277;22526;-79
2023/12/09 04:52:54;;;;;;;12.90;7.50;;;;;;;-1.34;85.93;95898.51;106476;1277;25359;-79
2023/12/09 04:55:23;;;;;;;11.20;6.60;;;;;;;-1.25;86.12;95901.55;106477;1277;22638;-79
2023/12/09 04:57:52;;;;;;;11.30;6.70;;;;;;;-1.19;85.78;95899.48;106487;1277;22647;-79
2023/12/09 05:00:21;;;;;;;11.00;6.80;;;;;;;-1.20;85.19;95896.35;106424;1277;22564;-80
2023/12/09 05:02:50;;;;;;;11.90;6.60;;;;;;;-1.16;85.77;95898.22;106510;1277;24417;-79
2023/12/09 05:05:18;;;;;;;11.30;6.90;;;;;;;-1.02;86.18;95894.85;106448;1277;22531;-80
2023/12/09 05:07:47;;;;;;;12.10;6.50;;;;;;;-0.96;85.67;95895.55;106509;1277;24208;-79
2023/12/09 05:10:16;;;;;;;8.40;5.90;;;;;;;-0.93;85.11;95896.16;106489;1277;23905;-79
2023/12/09 05:12:44;;;;;;;13.10;6.90;;;;;;;-0.89;85.06;95894.73;106433;1277;22838;-79
2023/12/09 05:15:12;;;;;;;14.50;6.90;;;;;;;-0.85;84.95;95893.80;106473;1277;22535;-79
2023/12/09 05:17:40;;;;;;;15.10;8.80;;;;;;;-0.75;85.50;95893.76;106478;1277;22787;-79
2023/12/09 05:20:09;;;;;;;14.20;8.30;;;;;;;-0.66;84.56;95890.37;106444;1277;22531;-79
2023/12/09 05:22:38;;;;;;;9.90;6.70;;;;;;;-0.70;84.18;95889.42;106625;1277;26542;-79
2023/12/09 05:25:07;;;;;;;8.90;5.70;;;;;;;-0.73;83.93;95892.26;106446;1277;24392;-79
2023/12/09 05:27:35;;;;;;;13.60;6.70;;;;;;;-0.86;83.62;95891.17;106534;1277;22963;-79
2023/12/09 05:30:04;;;;;;;13.90;8.30;;;;;;;-0.89;84.20;95895.93;106453;1277;23405;-80
2023/12/09 05:32:33;;;;;;;14.60;8.60;;;;;;;-0.88;84.61;95896.81;106422;1277;22536;-79
2023/12/09 05:35:01;;;;;;;13.20;7.80;;;;;;;-0.84;84.60;95894.68;106532;1277;22536;-79
2023/12/09 05:37:29;;;;;;;10.60;6.70;;;;;;;-0.84;84.37;95894.69;106755;1277;23938;-79
2023/12/09 05:39:57;;;;;;;10.50;6.50;;;;;;;-0.88;84.05;95897.35;106468;1277;22526;-80
2023/12/09 05:42:26;;;;;;;11.50;6.90;;;;;;;-0.97;83.73;95897.92;106458;1277;22528;-79
2023/12/09 05:44:55;;;;;;;11.90;6.60;;;;;;;-1.03;84.01;95902.40;106481;1277;24460;-79
2023/12/09 05:47:24;;;;;;;11.80;7.10;;;;;;;-1.05;84.36;95900.63;106452;1277;25555;-79
2023/12/09 05:49:53;;;;;;;16.90;9.60;;;;;;;-1.05;84.51;95897.86;106515;1261;25256;-79
2023/12/09 05:52:21;;;;;;;22.40;12.70;;;;;;;-1.08;84.35;95900.52;106464;1277;23153;-79
2023/12/09 05:54:49;;;;;;;16.40;8.20;;;;;;;-1.16;84.42;95905.63;106411;1277;22535;-79
2023/12/09 05:57:18;;;;;;;13.70;7.80;;;;;;;-1.26;84.41;95902.55;106471;1267;22640;-79
2023/12/09 05:59:46;;;;;;;17.80;10.10;;;;;;;-1.33;84.69;95904.58;106592;1276;25287;-79
2023/12/09 06:02:14;;;;;;;17.10;10.20;;;;;;;-1.40;85.00;95903.83;106443;1277;22530;-79
2023/12/09 06:04:43;;;;;;;18.80;11.50;;;;;;;-1.43;85.09;95903.92;106504;1277;22765;-79
2023/12/09 06:07:11;;;;;;;16.50;10.10;;;;;;;-1.43;85.23;95903.05;106696;1277;22629;-79
2023/12/09 06:09:39;;;;;;;11.50;7.20;;;;;;;-1.46;85.20;95908.14;106716;1277;24297;-79
2023/12/09 06:12:07;;;;;;;13.30;7.90;;;;;;;-1.51;85.16;95912.98;106739;1277;22670;-79
2023/12/09 06:14:36;;;;;;;19.20;10.30;;;;;;;-1.53;85.18;95912.90;106424;1277;23941;-79
2023/12/09 06:17:04;;;;;;;16.00;8.50;;;;;;;-1.52;85.28;95913.46;106471;1277;24321;-79
2023/12/09 06:19:32;;;;;;;11.10;6.40;;;;;;;-1.48;85.15;95913.06;106459;1277;25677;-79
2023/12/09 06:22:00;;;;;;;10.00;6.20;;;;;;;-1.46;84.96;95911.20;106743;1277;25442;-79
2023/12/09 06:24:28;;;;;;;54.60;24.20;;;;;;;-1.43;85.10;95911.15;106425;1277;25566;-79
2023/12/09 06:26:57;;;;;;;46.90;24.90;;;;;;;-1.41;84.98;95909.31;106466;1277;22938;-79
2023/12/09 06:29:25;;;;;;;15.10;8.40;;;;;;;-1.41;84.71;95912.08;106458;1276;25426;-79
2023/12/09 06:31:53;;;;;;;12.80;7.90;;;;;;;-1.38;85.04;95912.88;106500;1277;22525;-79
2023/12/09 06:34:21;;;;;;;14.10;7.60;;;;;;;-1.31;85.30;95910.70;106429;1277;22670;-80
2023/12/09 06:36:50;;;;;;;10.80;6.10;;;;;;;-1.24;85.00;95908.48;106429;1277;22561;-79
2023/12/09 06:39:18;;;;;;;14.10;9.40;;;;;;;-1.22;84.72;95909.75;106418;1277;22918;-79
2023/12/09 06:41:47;;;;;;;12.00;7.80;;;;;;;-1.21;84.76;95914.13;106436;1277;25724;-79
2023/12/09 06:44:15;;;;;;;12.50;7.80;;;;;;;-1.17;84.85;95916.48;106425;1276;25295;-79
2023/12/09 06:46:43;;;;;;;15.00;8.50;;;;;;;-1.10;84.50;95914.10;106449;1277;25255;-79
2023/12/09 06:49:11;;;;;;;15.30;9.40;;;;;;;-1.05;84.25;95912.70;106433;1277;24224;-79
2023/12/09 06:51:42;;;;;;;13.80;8.80;;;;;;;-1.00;84.50;95907.66;106463;1277;22530;-79
2023/12/09 06:54:11;;;;;;;15.80;9.10;;;;;;;-0.95;83.76;95903.17;106493;1277;25366;-79
2023/12/09 06:56:39;;;;;;;17.20;9.50;;;;;;;-0.96;83.30;95906.78;106481;1277;24056;-79
2023/12/09 06:59:08;;;;;;;24.00;13.20;;;;;;;-0.98;83.31;95908.09;106444;1277;22538;-79
2023/12/09 07:01:37;;;;;;;37.60;17.60;;;;;;;-1.02;83.06;95906.56;106734;1277;24270;-79
2023/12/09 07:04:05;;;;;;;49.70;19.80;;;;;;;-1.08;83.42;95903.98;106435;1277;25307;-79
2023/12/09 07:06:35;;;;;;;88.30;35.30;;;;;;;-1.14;83.27;95902.58;106422;1277;22530;-79
2023/12/09 07:09:03;;;;;;;54.60;24.50;;;;;;;-1.21;83.36;95905.66;106441;1277;23896;-79
2023/12/09 07:11:32;;;;;;;258.30;91.20;;;;;;;-1.26;83.09;95907.90;106445;1277;23173;-78
2023/12/09 07:14:00;;;;;;;27.60;13.30;;;;;;;-1.31;83.79;95913.61;106693;1277;24329;-78
2023/12/09 07:16:29;;;;;;;44.10;20.00;;;;;;;-1.40;83.73;95917.80;106719;1277;25512;-79
2023/12/09 07:19:00;;;;;;;74.40;37.50;;;;;;;-1.40;83.88;95916.62;106573;1277;25468;-79
2023/12/09 07:21:29;;;;;;;26.30;14.80;;;;;;;-1.44;83.81;95914.94;106471;1277;23940;-79
2023/12/09 07:23:57;;;;;;;54.00;25.30;;;;;;;-1.45;83.53;95916.09;106444;1277;23155;-79
2023/12/09 07:26:26;;;;;;;35.50;18.10;;;;;;;-1.52;83.92;95918.81;106407;1277;22566;-79
2023/12/09 07:28:54;;;;;;;78.30;40.60;;;;;;;-1.52;84.04;95919.15;106458;1277;24086;-79
2023/12/09 07:31:23;;;;;;;32.30;19.00;;;;;;;-1.48;84.31;95920.84;106410;1274;22582;-79
2023/12/09 07:33:51;;;;;;;19.70;11.80;;;;;;;-1.42;84.37;95917.91;106459;1258;25277;-79
2023/12/09 07:36:19;;;;;;;16.00;10.50;;;;;;;-1.38;84.37;95917.04;106655;1276;22613;-79
2023/12/09 07:38:48;;;;;;;21.70;11.00;;;;;;;-1.31;84.39;95918.98;106401;1277;24391;-79
2023/12/09 07:41:16;;;;;;;43.90;24.90;;;;;;;-1.34;83.80;95920.94;106422;1277;22526;-79
2023/12/09 07:43:44;;;;;;;18.90;11.90;;;;;;;-1.37;83.75;95923.59;106660;1277;22526;-79
2023/12/09 07:46:12;;;;;;;20.70;11.90;;;;;;;-1.35;83.89;95924.38;106434;1277;23286;-79
2023/12/09 07:48:41;;;;;;;16.60;9.50;;;;;;;-1.25;84.13;95923.64;106447;1277;25347;-79
2023/12/09 07:51:09;;;;;;;15.60;9.30;;;;;;;-1.20;83.68;95921.56;106581;1277;24405;-79
2023/12/09 07:53:37;;;;;;;20.20;13.10;;;;;;;-1.09;84.14;95922.95;106448;1277;22642;-79
2023/12/09 07:56:06;;;;;;;18.70;10.30;;;;;;;-0.95;84.22;95926.16;106455;1277;22523;-79
2023/12/09 07:58:34;;;;;;;15.30;9.10;;;;;;;-0.87;83.04;95927.24;106476;1277;22526;-79
2023/12/09 08:01:03;;;;;;;22.30;15.20;;;;;;;-0.87;82.60;95930.02;106475;1277;23898;-79
2023/12/09 08:03:35;;;;;;;19.50;12.30;;;;;;;-0.89;82.52;95929.25;106435;1277;23294;-79
2023/12/09 08:06:04;;;;;;;14.00;9.10;;;;;;;-0.90;82.35;95924.73;106428;1277;25360;-79
2023/12/09 08:08:33;;;;;;;20.70;13.30;;;;;;;-0.84;82.73;95925.59;106440;1277;22522;-79
2023/12/09 08:11:01;;;;;;;11.50;8.60;;;;;;;-0.80;82.75;95922.27;106465;1277;24357;-79
2023/12/09 08:13:29;;;;;;;16.00;10.90;;;;;;;-0.78;82.36;95925.09;106450;1277;22648;-79
2023/12/09 08:15:57;;;;;;;15.50;9.80;;;;;;;-0.82;82.18;95929.64;106453;1277;22549;-79
2023/12/09 08:18:25;;;;;;;13.60;7.80;;;;;;;-0.80;82.37;95928.14;106749;1277;24310;-79
2023/12/09 08:20:55;;;;;;;12.20;8.20;;;;;;;-0.87;81.45;95927.23;106419;1266;22758;-79
2023/12/09 08:23:23;;;;;;;12.70;8.00;;;;;;;-0.95;81.98;95926.30;106423;1277;22633;-79
2023/12/09 08:25:51;;;;;;;9.20;5.80;;;;;;;-0.94;82.35;95930.66;106425;1268;22665;-79
2023/12/09 08:28:19;;;;;;;8.20;5.20;;;;;;;-0.92;82.39;95926.41;106471;1277;22630;-79
2023/12/09 08:30:47;;;;;;;9.40;5.90;;;;;;;-0.94;81.78;95930.34;106446;1277;26031;-79
2023/12/09 08:33:15;;;;;;;10.60;6.50;;;;;;;-0.96;81.84;95925.93;106465;1277;24281;-79
2023/12/09 08:35:44;;;;;;;17.10;10.10;;;;;;;-1.01;81.66;95923.17;106447;1277;23898;-79
2023/12/09 08:38:12;;;;;;;36.50;23.70;;;;;;;-1.06;81.93;95924.59;106463;1277;22579;-79
2023/12/09 08:40:40;;;;;;;21.00;15.80;;;;;;;-1.05;82.40;95921.00;106462;1277;25301;-79
2023/12/09 08:43:08;;;;;;;17.40;10.20;;;;;;;-1.03;82.24;95923.81;106427;1277;24248;-79
2023/12/09 08:45:36;;;;;;;17.10;9.70;;;;;;;-1.00;82.36;95924.26;106443;1277;25245;-79
2023/12/09 08:48:06;;;;;;;14.20;7.60;;;;;;;-0.98;82.15;95922.24;106414;1277;22645;-79
2023/12/09 08:50:35;;;;;;;9.20;6.30;;;;;;;-0.97;82.27;95920.56;106439;1273;23046;-79
2023/12/09 08:53:03;;;;;;;9.70;6.70;;;;;;;-0.94;81.95;95918.39;106468;1277;22522;-79
2023/12/09 08:55:31;;;;;;;18.50;10.20;;;;;;;-0.95;81.38;95917.17;106423;1277;23897;-79
2023/12/09 08:57:59;;;;;;;9.50;5.70;;;;;;;-0.93;81.70;95922.41;106763;1277;25469;-78
2023/12/09 09:00:27;;;;;;;8.70;4.90;;;;;;;-0.88;81.44;95919.79;106774;1277;22520;-79
2023/12/09 09:02:56;;;;;;;32.30;15.20;;;;;;;-0.88;80.83;95921.20;106516;1277;25387;-79
2023/12/09 09:05:25;;;;;;;13.70;7.80;;;;;;;-0.88;80.12;95918.05;106457;1277;24292;-79
2023/12/09 09:07:53;;;;;;;9.40;5.50;;;;;;;-0.83;80.28;95912.16;106455;1277;25302;-79
2023/12/09 09:10:22;;;;;;;6.80;4.70;;;;;;;-0.78;80.29;95914.05;106442;1277;25297;-79
2023/12/09 09:12:51;;;;;;;9.60;6.40;;;;;;;-0.64;80.53;95910.33;106501;1277;22551;-79
2023/12/09 09:15:20;;;;;;;11.00;7.70;;;;;;;-0.51;80.27;95906.72;106421;1277;22553;-79
2023/12/09 09:17:49;;;;;;;7.50;4.80;;;;;;;-0.34;80.27;95905.46;106427;1277;25412;-79
2023/12/09 09:20:18;;;;;;;6.80;4.70;;;;;;;-0.23;79.38;95902.50;106537;1277;22535;-78
2023/12/09 09:22:47;;;;;;;6.70;5.10;;;;;;;-0.10;79.33;95895.92;106463;1277;22536;-79
2023/12/09 09:25:16;;;;;;;6.00;4.80;;;;;;;0.04;78.63;95890.59;106407;1277;22518;-79
2023/12/09 09:27:44;;;;;;;6.60;5.00;;;;;;;0.20;78.88;95887.73;106798;1277;22533;-79
2023/12/09 09:30:13;;;;;;;7.90;5.30;;;;;;;0.50;78.55;95879.30;106512;1277;25364;-79
2023/12/09 09:32:41;;;;;;;8.00;5.40;;;;;;;0.65;76.68;95880.37;106403;1277;25386;-79
2023/12/09 09:35:10;;;;;;;8.10;5.60;;;;;;;0.71;76.09;95881.23;106454;1277;23040;-78
2023/12/09 09:37:38;;;;;;;8.00;5.20;;;;;;;0.80;75.57;95875.00;106389;1277;26110;-79
2023/12/09 09:40:07;;;;;;;6.60;4.90;;;;;;;0.96;75.92;95874.70;106407;1277;24233;-78
2023/12/09 09:42:55;;;;;;;6.70;5.10;;;;;;;1.16;75.04;95873.24;106503;1277;23884;-78
2023/12/09 09:45:26;;;;;;;8.40;5.00;;;;;;;1.39;75.62;95862.11;106450;1277;22647;-78
2023/12/09 09:48:05;;;;;;;9.60;6.30;;;;;;;1.44;72.54;95854.23;106428;1277;25322;-78
2023/12/09 09:50:44;;;;;;;10.00;6.70;;;;;;;1.57;72.07;95850.35;106419;1277;24278;-78
2023/12/09 09:53:19;;;;;;;8.40;5.50;;;;;;;1.86;71.59;95851.63;106432;1277;25362;-78
2023/12/09 09:55:48;;;;;;;9.50;6.10;;;;;;;1.95;70.18;95843.11;106504;1277;22545;-78
2023/12/09 09:58:16;;;;;;;12.60;9.20;;;;;;;2.25;69.48;95838.45;106433;1267;22587;-78
2023/12/09 10:00:45;;;;;;;11.00;7.40;;;;;;;2.33;69.11;95834.23;106415;1277;25461;-78
2023/12/09 10:03:14;;;;;;;16.20;10.10;;;;;;;2.49;69.46;95827.03;106477;1277;22808;-78
2023/12/09 10:05:43;;;;;;;15.10;9.70;;;;;;;2.46;69.64;95827.52;106445;1277;22561;-78
2023/12/09 10:08:11;;;;;;;9.40;6.20;;;;;;;2.58;69.63;95818.14;106445;1277;25252;-78
2023/12/09 10:10:40;;;;;;;8.70;6.90;;;;;;;2.33;68.19;95817.90;106448;1277;22655;-78
2023/12/09 10:13:08;;;;;;;13.40;8.80;;;;;;;2.24;69.11;95817.58;106432;1277;22536;-78
2023/12/09 10:15:37;;;;;;;12.90;9.40;;;;;;;2.69;68.83;95807.54;106410;1277;24054;-78
2023/12/09 10:18:11;;;;;;;10.90;8.50;;;;;;;3.15;68.04;95802.82;106440;1277;24418;-78
2023/12/09 10:20:40;;;;;;;15.40;10.20;;;;;;;3.33;66.52;95795.21;106457;1277;25847;-78
2023/12/09 10:23:08;;;;;;;10.10;8.00;;;;;;;3.46;65.71;95790.16;106416;1274;24290;-78
2023/12/09 10:25:36;;;;;;;10.70;8.00;;;;;;;3.42;65.96;95786.13;106451;1277;22517;-78
2023/12/09 10:28:07;;;;;;;12.20;8.10;;;;;;;3.66;66.72;95778.56;106715;1277;22572;-78
2023/12/09 10:30:36;;;;;;;44.50;26.80;;;;;;;4.13;67.12;95775.73;106512;1277;24334;-78
2023/12/09 10:33:04;;;;;;;20.10;14.90;;;;;;;4.51;63.74;95772.56;106394;1265;22560;-78
2023/12/09 10:35:34;;;;;;;10.10;8.00;;;;;;;4.74;61.92;95769.26;106365;1277;24057;-78
2023/12/09 10:38:04;;;;;;;11.20;8.80;;;;;;;4.84;61.48;95765.31;106434;1277;22533;-78
2023/12/09 10:40:33;;;;;;;16.40;9.50;;;;;;;4.88;61.47;95759.76;106388;1277;24390;-78
2023/12/09 10:43:02;;;;;;;9.70;6.90;;;;;;;4.65;61.33;95762.06;106578;1277;22757;-78
2023/12/09 10:45:31;;;;;;;8.40;7.20;;;;;;;4.57;61.82;95763.91;106740;1277;22527;-77
2023/12/09 10:47:59;;;;;;;10.90;7.60;;;;;;;4.48;63.01;95763.67;106424;1277;24285;-78
2023/12/09 10:50:30;;;;;;;9.00;7.50;;;;;;;4.26;62.93;95760.35;106418;1277;22853;-78
2023/12/09 10:52:59;;;;;;;10.00;8.20;;;;;;;4.15;63.91;95755.91;106454;1277;22670;-78
2023/12/09 10:55:27;;;;;;;12.20;8.40;;;;;;;4.24;63.34;95746.23;106484;1277;25436;-78
2023/12/09 10:57:55;;;;;;;10.40;7.30;;;;;;;4.31;63.57;95749.25;106431;1277;25257;-77
2023/12/09 11:00:24;;;;;;;9.80;7.20;;;;;;;4.20;63.32;95751.08;106471;1277;25308;-78
2023/12/09 11:02:54;;;;;;;8.90;7.30;;;;;;;3.98;63.43;95757.50;106499;1277;25254;-78
2023/12/09 11:05:23;;;;;;;10.70;7.70;;;;;;;3.78;64.74;95752.25;106506;1277;25438;-77
2023/12/09 11:07:53;;;;;;;11.30;7.90;;;;;;;3.73;65.50;95747.52;106454;1277;22661;-78
2023/12/09 11:10:22;;;;;;;9.70;7.60;;;;;;;3.67;65.47;95742.57;106465;1277;22537;-78
2023/12/09 11:12:51;;;;;;;10.80;8.00;;;;;;;3.53;65.39;95741.38;106439;1277;25487;-77
2023/12/09 11:15:22;;;;;;;9.20;7.20;;;;;;;3.41;66.02;95740.38;106458;1277;22532;-78
2023/12/09 11:17:51;;;;;;;10.50;6.80;;;;;;;3.33;66.72;95738.02;106506;1277;24413;-78
2023/12/09 11:20:24;;;;;;;10.00;7.60;;;;;;;3.28;66.63;95731.36;106443;1277;25532;-78
2023/12/09 11:22:53;;;;;;;10.50;7.50;;;;;;;3.34;66.87;95729.35;106460;1277;22535;-77
2023/12/09 11:25:25;;;;;;;9.30;7.20;;;;;;;3.38;66.68;95725.22;106550;1277;22547;-78
2023/12/09 11:27:55;;;;;;;11.10;7.40;;;;;;;3.30;66.48;95724.09;106725;1277;22665;-77